sensor_id;sensor_type;location;lat;lon;timestamp;temperature;humidity
69009;SHT31;56065;52.472;13.380;2022-12-07T00:00:55;4.87;83.45
69009;SHT31;56065;52.472;13.380;2022-12-07T00:03:21;4.72;83.72
69009;SHT31;56065;52.472;13.380;2022-12-07T00:05:46;4.80;83.59
69009;SHT31;56065;52.472;13.380;2022-12-07T00:08:11;4.66;83.91
69009;SHT31;56065;52.472;13.380;2022-12-07T00:10:37;4.69;83.63
69009;SHT31;56065;52.472;13.380;2022-12-07T00:13:02;4.58;83.61
69009;SHT31;56065;52.472;13.380;2022-12-07T00:15:27;4.66;83.44
69009;SHT31;56065;52.472;13.380;2022-12-07T00:17:53;4.72;83.23
69009;SHT31;56065;52.472;13.380;2022-12-07T00:20:18;4.69;83.28
69009;SHT31;56065;52.472;13.380;2022-12-07T00:22:44;4.70;83.43
69009;SHT31;56065;52.472;13.380;2022-12-07T00:25:09;4.53;83.35
69009;SHT31;56065;52.472;13.380;2022-12-07T00:27:34;4.35;82.98
69009;SHT31;56065;52.472;13.380;2022-12-07T00:30:00;4.45;83.34
69009;SHT31;56065;52.472;13.380;2022-12-07T00:32:26;4.52;83.06
69009;SHT31;56065;52.472;13.380;2022-12-07T00:34:51;4.53;83.20
69009;SHT31;56065;52.472;13.380;2022-12-07T00:37:16;4.42;82.91
69009;SHT31;56065;52.472;13.380;2022-12-07T00:39:42;4.17;82.93
69009;SHT31;56065;52.472;13.380;2022-12-07T00:42:07;3.90;82.78
69009;SHT31;56065;52.472;13.380;2022-12-07T00:44:32;3.73;83.04
69009;SHT31;56065;52.472;13.380;2022-12-07T00:46:57;3.69;82.87
69009;SHT31;56065;52.472;13.380;2022-12-07T00:49:23;3.62;82.93
69009;SHT31;56065;52.472;13.380;2022-12-07T00:51:49;3.49;83.12
69009;SHT31;56065;52.472;13.380;2022-12-07T00:54:14;3.63;83.38
69009;SHT31;56065;52.472;13.380;2022-12-07T00:56:40;3.64;83.93
69009;SHT31;56065;52.472;13.380;2022-12-07T00:59:05;3.62;83.34
69009;SHT31;56065;52.472;13.380;2022-12-07T01:01:34;3.66;83.51
69009;SHT31;56065;52.472;13.380;2022-12-07T01:04:00;3.80;83.37
69009;SHT31;56065;52.472;13.380;2022-12-07T01:06:29;3.90;83.55
69009;SHT31;56065;52.472;13.380;2022-12-07T01:08:55;3.95;83.01
69009;SHT31;56065;52.472;13.380;2022-12-07T01:11:23;4.01;82.96
69009;SHT31;56065;52.472;13.380;2022-12-07T01:13:53;3.98;82.20
69009;SHT31;56065;52.472;13.380;2022-12-07T01:16:20;3.98;82.00
69009;SHT31;56065;52.472;13.380;2022-12-07T01:18:51;4.14;82.34
69009;SHT31;56065;52.472;13.380;2022-12-07T01:21:19;4.15;82.08
69009;SHT31;56065;52.472;13.380;2022-12-07T01:23:46;4.21;82.14
69009;SHT31;56065;52.472;13.380;2022-12-07T01:26:14;4.27;82.19
69009;SHT31;56065;52.472;13.380;2022-12-07T01:28:40;4.32;82.36
69009;SHT31;56065;52.472;13.380;2022-12-07T01:31:11;4.39;82.34
69009;SHT31;56065;52.472;13.380;2022-12-07T01:33:38;4.31;81.64
69009;SHT31;56065;52.472;13.380;2022-12-07T01:36:12;4.38;81.86
69009;SHT31;56065;52.472;13.380;2022-12-07T01:38:38;4.36;81.43
69009;SHT31;56065;52.472;13.380;2022-12-07T01:41:04;4.42;81.89
69009;SHT31;56065;52.472;13.380;2022-12-07T01:43:31;4.46;81.86
69009;SHT31;56065;52.472;13.380;2022-12-07T01:45:57;4.48;81.97
69009;SHT31;56065;52.472;13.380;2022-12-07T01:48:26;4.52;82.09
69009;SHT31;56065;52.472;13.380;2022-12-07T01:50:55;4.56;82.87
69009;SHT31;56065;52.472;13.380;2022-12-07T01:53:24;4.41;81.12
69009;SHT31;56065;52.472;13.380;2022-12-07T01:55:52;4.42;81.60
69009;SHT31;56065;52.472;13.380;2022-12-07T01:58:17;4.42;81.27
69009;SHT31;56065;52.472;13.380;2022-12-07T02:00:43;4.44;81.57
69009;SHT31;56065;52.472;13.380;2022-12-07T02:03:19;4.45;81.75
69009;SHT31;56065;52.472;13.380;2022-12-07T02:05:47;4.42;82.09
69009;SHT31;56065;52.472;13.380;2022-12-07T02:08:14;4.46;81.77
69009;SHT31;56065;52.472;13.380;2022-12-07T02:10:40;4.38;81.61
69009;SHT31;56065;52.472;13.380;2022-12-07T02:13:13;4.39;81.83
69009;SHT31;56065;52.472;13.380;2022-12-07T02:18:16;4.34;81.44
69009;SHT31;56065;52.472;13.380;2022-12-07T02:20:57;4.32;81.56
69009;SHT31;56065;52.472;13.380;2022-12-07T02:23:58;4.25;81.80
69009;SHT31;56065;52.472;13.380;2022-12-07T02:31:25;3.91;81.61
69009;SHT31;56065;52.472;13.380;2022-12-07T02:34:00;3.78;81.77
69009;SHT31;56065;52.472;13.380;2022-12-07T02:36:34;3.55;82.02
69009;SHT31;56065;52.472;13.380;2022-12-07T02:39:15;3.70;82.20
69009;SHT31;56065;52.472;13.380;2022-12-07T02:41:51;3.70;82.41
69009;SHT31;56065;52.472;13.380;2022-12-07T02:44:21;3.60;82.50
69009;SHT31;56065;52.472;13.380;2022-12-07T02:46:55;3.39;83.02
69009;SHT31;56065;52.472;13.380;2022-12-07T02:49:22;3.43;83.17
69009;SHT31;56065;52.472;13.380;2022-12-07T02:51:48;3.49;83.01
69009;SHT31;56065;52.472;13.380;2022-12-07T02:54:16;3.25;83.26
69009;SHT31;56065;52.472;13.380;2022-12-07T03:10:17;3.39;83.87
69009;SHT31;56065;52.472;13.380;2022-12-07T03:15:33;3.42;83.59
69009;SHT31;56065;52.472;13.380;2022-12-07T03:18:01;3.26;83.88
69009;SHT31;56065;52.472;13.380;2022-12-07T03:20:29;3.20;84.28
69009;SHT31;56065;52.472;13.380;2022-12-07T03:22:54;3.27;84.24
69009;SHT31;56065;52.472;13.380;2022-12-07T03:25:22;3.30;84.03
69009;SHT31;56065;52.472;13.380;2022-12-07T03:27:57;3.37;83.85
69009;SHT31;56065;52.472;13.380;2022-12-07T03:30:27;3.40;83.92
69009;SHT31;56065;52.472;13.380;2022-12-07T03:33:08;3.50;83.74
69009;SHT31;56065;52.472;13.380;2022-12-07T03:35:41;3.59;83.65
69009;SHT31;56065;52.472;13.380;2022-12-07T03:38:20;3.66;83.46
69009;SHT31;56065;52.472;13.380;2022-12-07T03:40:52;3.66;83.26
69009;SHT31;56065;52.472;13.380;2022-12-07T03:43:20;3.71;83.28
69009;SHT31;56065;52.472;13.380;2022-12-07T03:46:13;3.60;83.73
69009;SHT31;56065;52.472;13.380;2022-12-07T03:49:06;3.60;83.75
69009;SHT31;56065;52.472;13.380;2022-12-07T03:51:40;3.35;84.21
69009;SHT31;56065;52.472;13.380;2022-12-07T03:56:53;3.43;84.30
69009;SHT31;56065;52.472;13.380;2022-12-07T03:59:19;3.49;84.15
69009;SHT31;56065;52.472;13.380;2022-12-07T04:01:51;3.42;84.40
69009;SHT31;56065;52.472;13.380;2022-12-07T04:04:17;3.37;85.00
69009;SHT31;56065;52.472;13.380;2022-12-07T04:06:43;3.55;84.57
69009;SHT31;56065;52.472;13.380;2022-12-07T04:09:08;3.50;84.61
69009;SHT31;56065;52.472;13.380;2022-12-07T04:11:33;3.25;85.44
69009;SHT31;56065;52.472;13.380;2022-12-07T04:13:59;3.26;85.25
69009;SHT31;56065;52.472;13.380;2022-12-07T04:16:42;3.11;85.97
69009;SHT31;56065;52.472;13.380;2022-12-07T04:19:08;3.20;86.15
69009;SHT31;56065;52.472;13.380;2022-12-07T04:21:33;3.06;86.73
69009;SHT31;56065;52.472;13.380;2022-12-07T04:23:58;3.08;86.68
69009;SHT31;56065;52.472;13.380;2022-12-07T04:26:24;2.91;86.89
69009;SHT31;56065;52.472;13.380;2022-12-07T04:28:49;3.04;86.90
69009;SHT31;56065;52.472;13.380;2022-12-07T04:31:14;2.89;87.07
69009;SHT31;56065;52.472;13.380;2022-12-07T04:33:40;2.84;87.26
69009;SHT31;56065;52.472;13.380;2022-12-07T04:36:05;3.06;87.05
69009;SHT31;56065;52.472;13.380;2022-12-07T04:38:31;2.89;87.54
69009;SHT31;56065;52.472;13.380;2022-12-07T04:40:56;2.99;87.84
69009;SHT31;56065;52.472;13.380;2022-12-07T04:43:22;2.95;88.19
69009;SHT31;56065;52.472;13.380;2022-12-07T04:45:47;3.06;87.87
69009;SHT31;56065;52.472;13.380;2022-12-07T04:48:14;3.09;87.58
69009;SHT31;56065;52.472;13.380;2022-12-07T04:50:39;2.99;87.97
69009;SHT31;56065;52.472;13.380;2022-12-07T04:53:05;3.13;87.35
69009;SHT31;56065;52.472;13.380;2022-12-07T04:55:30;3.12;87.57
69009;SHT31;56065;52.472;13.380;2022-12-07T04:57:55;3.12;87.93
69009;SHT31;56065;52.472;13.380;2022-12-07T05:00:21;2.91;88.56
69009;SHT31;56065;52.472;13.380;2022-12-07T05:02:46;2.81;88.95
69009;SHT31;56065;52.472;13.380;2022-12-07T05:05:11;2.78;88.99
69009;SHT31;56065;52.472;13.380;2022-12-07T05:07:37;2.92;89.02
69009;SHT31;56065;52.472;13.380;2022-12-07T05:10:02;2.89;88.83
69009;SHT31;56065;52.472;13.380;2022-12-07T05:12:28;3.08;88.76
69009;SHT31;56065;52.472;13.380;2022-12-07T05:14:53;3.23;88.48
69009;SHT31;56065;52.472;13.380;2022-12-07T05:17:18;3.35;87.99
69009;SHT31;56065;52.472;13.380;2022-12-07T05:19:44;3.30;88.12
69009;SHT31;56065;52.472;13.380;2022-12-07T05:22:09;3.26;88.54
69009;SHT31;56065;52.472;13.380;2022-12-07T05:24:35;3.36;88.38
69009;SHT31;56065;52.472;13.380;2022-12-07T05:27:00;3.39;88.41
69009;SHT31;56065;52.472;13.380;2022-12-07T05:29:26;3.49;88.15
69009;SHT31;56065;52.472;13.380;2022-12-07T05:31:51;3.26;88.92
69009;SHT31;56065;52.472;13.380;2022-12-07T05:34:16;3.36;88.68
69009;SHT31;56065;52.472;13.380;2022-12-07T05:36:42;3.50;88.44
69009;SHT31;56065;52.472;13.380;2022-12-07T05:39:07;3.57;88.17
69009;SHT31;56065;52.472;13.380;2022-12-07T05:41:33;3.56;88.32
69009;SHT31;56065;52.472;13.380;2022-12-07T05:44:17;3.57;88.60
69009;SHT31;56065;52.472;13.380;2022-12-07T05:46:42;3.71;88.24
69009;SHT31;56065;52.472;13.380;2022-12-07T05:49:07;3.76;88.31
69009;SHT31;56065;52.472;13.380;2022-12-07T05:51:33;3.80;88.07
69009;SHT31;56065;52.472;13.380;2022-12-07T05:53:58;3.76;88.31
69009;SHT31;56065;52.472;13.380;2022-12-07T05:56:23;3.73;88.38
69009;SHT31;56065;52.472;13.380;2022-12-07T05:58:49;3.93;88.16
69009;SHT31;56065;52.472;13.380;2022-12-07T06:01:33;3.98;88.13
69009;SHT31;56065;52.472;13.380;2022-12-07T06:03:59;3.94;88.14
69009;SHT31;56065;52.472;13.380;2022-12-07T06:06:24;4.05;87.97
69009;SHT31;56065;52.472;13.380;2022-12-07T06:08:49;3.81;88.32
69009;SHT31;56065;52.472;13.380;2022-12-07T06:11:15;3.84;88.75
69009;SHT31;56065;52.472;13.380;2022-12-07T06:13:59;4.01;88.42
69009;SHT31;56065;52.472;13.380;2022-12-07T06:16:24;4.15;88.09
69009;SHT31;56065;52.472;13.380;2022-12-07T06:18:49;3.90;88.48
69009;SHT31;56065;52.472;13.380;2022-12-07T06:21:14;3.84;88.76
69009;SHT31;56065;52.472;13.380;2022-12-07T06:23:40;3.86;89.30
69009;SHT31;56065;52.472;13.380;2022-12-07T06:26:05;3.83;89.30
69009;SHT31;56065;52.472;13.380;2022-12-07T06:28:30;3.78;89.46
69009;SHT31;56065;52.472;13.380;2022-12-07T06:31:00;3.78;89.71
69009;SHT31;56065;52.472;13.380;2022-12-07T06:33:26;3.84;89.33
69009;SHT31;56065;52.472;13.380;2022-12-07T06:35:52;3.91;89.23
69009;SHT31;56065;52.472;13.380;2022-12-07T06:38:17;3.88;89.48
69009;SHT31;56065;52.472;13.380;2022-12-07T06:40:43;3.74;89.65
69009;SHT31;56065;52.472;13.380;2022-12-07T06:43:08;3.69;90.19
69009;SHT31;56065;52.472;13.380;2022-12-07T06:45:33;3.78;90.20
69009;SHT31;56065;52.472;13.380;2022-12-07T06:47:59;4.07;89.49
69009;SHT31;56065;52.472;13.380;2022-12-07T06:50:24;4.15;89.43
69009;SHT31;56065;52.472;13.380;2022-12-07T06:52:51;3.97;89.77
69009;SHT31;56065;52.472;13.380;2022-12-07T06:55:16;4.02;89.83
69009;SHT31;56065;52.472;13.380;2022-12-07T06:57:42;4.19;89.66
69009;SHT31;56065;52.472;13.380;2022-12-07T07:00:07;4.25;89.50
69009;SHT31;56065;52.472;13.380;2022-12-07T07:02:33;4.25;89.52
69009;SHT31;56065;52.472;13.380;2022-12-07T07:04:58;4.45;89.09
69009;SHT31;56065;52.472;13.380;2022-12-07T07:07:24;4.53;88.94
69009;SHT31;56065;52.472;13.380;2022-12-07T07:09:49;4.55;88.99
69009;SHT31;56065;52.472;13.380;2022-12-07T07:12:14;4.56;88.77
69009;SHT31;56065;52.472;13.380;2022-12-07T07:14:40;4.73;88.92
69009;SHT31;56065;52.472;13.380;2022-12-07T07:17:05;4.79;88.29
69009;SHT31;56065;52.472;13.380;2022-12-07T07:19:30;4.86;87.98
69009;SHT31;56065;52.472;13.380;2022-12-07T07:21:56;4.66;88.12
69009;SHT31;56065;52.472;13.380;2022-12-07T07:24:21;4.77;88.02
69009;SHT31;56065;52.472;13.380;2022-12-07T07:26:46;4.91;87.91
69009;SHT31;56065;52.472;13.380;2022-12-07T07:29:12;4.76;87.76
69009;SHT31;56065;52.472;13.380;2022-12-07T07:31:37;4.83;87.68
69009;SHT31;56065;52.472;13.380;2022-12-07T07:34:03;4.89;87.18
69009;SHT31;56065;52.472;13.380;2022-12-07T07:36:28;4.83;87.29
69009;SHT31;56065;52.472;13.380;2022-12-07T07:38:53;4.80;86.98
69009;SHT31;56065;52.472;13.380;2022-12-07T07:41:18;4.77;87.00
69009;SHT31;56065;52.472;13.380;2022-12-07T07:43:44;4.89;87.03
69009;SHT31;56065;52.472;13.380;2022-12-07T07:46:09;4.73;86.88
69009;SHT31;56065;52.472;13.380;2022-12-07T07:48:35;4.67;86.92
69009;SHT31;56065;52.472;13.380;2022-12-07T07:51:05;4.52;87.62
69009;SHT31;56065;52.472;13.380;2022-12-07T07:53:30;4.79;87.56
69009;SHT31;56065;52.472;13.380;2022-12-07T07:55:55;4.98;86.79
69009;SHT31;56065;52.472;13.380;2022-12-07T07:58:21;5.04;86.37
69009;SHT31;56065;52.472;13.380;2022-12-07T08:00:46;5.04;85.67
69009;SHT31;56065;52.472;13.380;2022-12-07T08:03:12;5.16;85.71
69009;SHT31;56065;52.472;13.380;2022-12-07T08:05:37;5.39;85.05
69009;SHT31;56065;52.472;13.380;2022-12-07T08:08:03;5.31;84.56
69009;SHT31;56065;52.472;13.380;2022-12-07T08:10:28;5.45;84.99
69009;SHT31;56065;52.472;13.380;2022-12-07T08:12:54;5.55;84.62
69009;SHT31;56065;52.472;13.380;2022-12-07T08:15:40;5.59;84.11
69009;SHT31;56065;52.472;13.380;2022-12-07T08:18:06;5.59;84.14
69009;SHT31;56065;52.472;13.380;2022-12-07T08:20:33;5.56;83.95
69009;SHT31;56065;52.472;13.380;2022-12-07T08:22:59;5.56;84.07
69009;SHT31;56065;52.472;13.380;2022-12-07T08:25:25;5.48;83.96
69009;SHT31;56065;52.472;13.380;2022-12-07T08:27:51;5.39;83.59
69009;SHT31;56065;52.472;13.380;2022-12-07T08:30:16;5.54;83.39
69009;SHT31;56065;52.472;13.380;2022-12-07T08:32:44;5.51;83.05
69009;SHT31;56065;52.472;13.380;2022-12-07T08:35:09;5.48;83.02
69009;SHT31;56065;52.472;13.380;2022-12-07T08:37:35;5.51;82.06
69009;SHT31;56065;52.472;13.380;2022-12-07T08:40:00;5.62;80.89
69009;SHT31;56065;52.472;13.380;2022-12-07T08:42:26;5.70;80.47
69009;SHT31;56065;52.472;13.380;2022-12-07T08:44:55;5.63;79.38
69009;SHT31;56065;52.472;13.380;2022-12-07T08:47:23;5.72;79.04
69009;SHT31;56065;52.472;13.380;2022-12-07T08:49:49;5.73;78.41
69009;SHT31;56065;52.472;13.380;2022-12-07T08:52:16;5.82;77.96
69009;SHT31;56065;52.472;13.380;2022-12-07T08:54:41;5.78;77.70
69009;SHT31;56065;52.472;13.380;2022-12-07T08:57:08;5.72;78.05
69009;SHT31;56065;52.472;13.380;2022-12-07T08:59:35;5.68;78.45
69009;SHT31;56065;52.472;13.380;2022-12-07T09:02:01;5.63;78.62
69009;SHT31;56065;52.472;13.380;2022-12-07T09:04:27;5.56;78.43
69009;SHT31;56065;52.472;13.380;2022-12-07T09:06:54;5.68;78.14
69009;SHT31;56065;52.472;13.380;2022-12-07T09:09:19;5.85;77.70
69009;SHT31;56065;52.472;13.380;2022-12-07T09:11:45;5.90;76.97
69009;SHT31;56065;52.472;13.380;2022-12-07T09:14:11;5.78;76.68
69009;SHT31;56065;52.472;13.380;2022-12-07T09:16:37;5.75;76.83
69009;SHT31;56065;52.472;13.380;2022-12-07T09:19:03;5.73;77.09
69009;SHT31;56065;52.472;13.380;2022-12-07T09:21:29;5.78;77.18
69009;SHT31;56065;52.472;13.380;2022-12-07T09:23:54;5.76;77.36
69009;SHT31;56065;52.472;13.380;2022-12-07T09:26:20;5.72;77.70
69009;SHT31;56065;52.472;13.380;2022-12-07T09:28:45;5.89;80.07
69009;SHT31;56065;52.472;13.380;2022-12-07T09:31:10;6.68;85.29
69009;SHT31;56065;52.472;13.380;2022-12-07T09:33:36;6.45;76.95
69009;SHT31;56065;52.472;13.380;2022-12-07T09:36:03;6.47;76.93
69009;SHT31;56065;52.472;13.380;2022-12-07T09:38:29;6.19;75.13
69009;SHT31;56065;52.472;13.380;2022-12-07T09:40:55;6.29;75.48
69009;SHT31;56065;52.472;13.380;2022-12-07T09:43:25;6.29;75.51
69009;SHT31;56065;52.472;13.380;2022-12-07T09:45:52;6.20;74.60
69009;SHT31;56065;52.472;13.380;2022-12-07T09:48:28;6.02;73.96
69009;SHT31;56065;52.472;13.380;2022-12-07T09:50:57;6.00;74.55
69009;SHT31;56065;52.472;13.380;2022-12-07T09:53:34;6.00;75.05
69009;SHT31;56065;52.472;13.380;2022-12-07T09:56:02;5.98;75.35
69009;SHT31;56065;52.472;13.380;2022-12-07T09:58:28;5.98;75.76
69009;SHT31;56065;52.472;13.380;2022-12-07T10:03:32;6.03;76.01
69009;SHT31;56065;52.472;13.380;2022-12-07T10:05:58;5.96;75.67
69009;SHT31;56065;52.472;13.380;2022-12-07T10:08:24;5.86;75.86
69009;SHT31;56065;52.472;13.380;2022-12-07T10:10:55;6.02;76.86
69009;SHT31;56065;52.472;13.380;2022-12-07T10:16:04;5.95;76.15
69009;SHT31;56065;52.472;13.380;2022-12-07T10:18:38;6.02;76.25
69009;SHT31;56065;52.472;13.380;2022-12-07T10:21:17;6.09;76.09
69009;SHT31;56065;52.472;13.380;2022-12-07T10:26:40;6.10;76.06
69009;SHT31;56065;52.472;13.380;2022-12-07T10:29:23;6.27;76.32
69009;SHT31;56065;52.472;13.380;2022-12-07T10:31:55;6.30;75.97
69009;SHT31;56065;52.472;13.380;2022-12-07T10:34:24;6.52;75.80
69009;SHT31;56065;52.472;13.380;2022-12-07T10:36:51;6.37;74.63
69009;SHT31;56065;52.472;13.380;2022-12-07T10:39:21;6.47;74.48
69009;SHT31;56065;52.472;13.380;2022-12-07T10:42:00;6.47;74.51
69009;SHT31;56065;52.472;13.380;2022-12-07T10:44:31;6.70;74.88
69009;SHT31;56065;52.472;13.380;2022-12-07T10:47:01;6.55;74.45
69009;SHT31;56065;52.472;13.380;2022-12-07T10:58:07;6.37;75.71
69009;SHT31;56065;52.472;13.380;2022-12-07T11:03:55;6.57;75.79
69009;SHT31;56065;52.472;13.380;2022-12-07T11:06:46;6.48;75.56
69009;SHT31;56065;52.472;13.380;2022-12-07T11:09:39;6.50;75.92
69009;SHT31;56065;52.472;13.380;2022-12-07T11:12:54;6.61;76.16
69009;SHT31;56065;52.472;13.380;2022-12-07T11:15:26;6.68;76.13
69009;SHT31;56065;52.472;13.380;2022-12-07T11:18:09;6.58;76.07
69009;SHT31;56065;52.472;13.380;2022-12-07T11:20:53;6.42;76.77
69009;SHT31;56065;52.472;13.380;2022-12-07T11:23:37;6.60;76.62
69009;SHT31;56065;52.472;13.380;2022-12-07T11:37:18;6.34;77.52
69009;SHT31;56065;52.472;13.380;2022-12-07T11:39:51;6.27;77.59
69009;SHT31;56065;52.472;13.380;2022-12-07T11:42:30;6.44;77.28
69009;SHT31;56065;52.472;13.380;2022-12-07T11:45:14;6.40;77.50
69009;SHT31;56065;52.472;13.380;2022-12-07T11:48:01;6.60;77.12
69009;SHT31;56065;52.472;13.380;2022-12-07T11:55:47;6.61;76.21
69009;SHT31;56065;52.472;13.380;2022-12-07T12:00:49;6.65;76.34
69009;SHT31;56065;52.472;13.380;2022-12-07T12:03:24;6.64;76.05
69009;SHT31;56065;52.472;13.380;2022-12-07T12:05:55;6.87;76.10
69009;SHT31;56065;52.472;13.380;2022-12-07T12:08:28;6.99;75.92
69009;SHT31;56065;52.472;13.380;2022-12-07T12:11:00;6.98;75.70
69009;SHT31;56065;52.472;13.380;2022-12-07T12:22:14;7.36;75.37
69009;SHT31;56065;52.472;13.380;2022-12-07T12:24:41;7.23;75.27
69009;SHT31;56065;52.472;13.380;2022-12-07T12:27:21;7.01;75.63
69009;SHT31;56065;52.472;13.380;2022-12-07T12:29:53;6.82;75.84
69009;SHT31;56065;52.472;13.380;2022-12-07T12:37:46;6.99;75.77
69009;SHT31;56065;52.472;13.380;2022-12-07T12:51:42;6.75;76.79
69009;SHT31;56065;52.472;13.380;2022-12-07T12:54:21;6.74;76.51
69009;SHT31;56065;52.472;13.380;2022-12-07T12:57:07;6.57;76.97
69009;SHT31;56065;52.472;13.380;2022-12-07T12:59:39;6.72;76.92
69009;SHT31;56065;52.472;13.380;2022-12-07T13:02:22;6.88;77.00
69009;SHT31;56065;52.472;13.380;2022-12-07T13:04:59;6.74;77.03
69009;SHT31;56065;52.472;13.380;2022-12-07T13:15:50;6.81;76.89
69009;SHT31;56065;52.472;13.380;2022-12-07T13:20:55;6.81;76.79
69009;SHT31;56065;52.472;13.380;2022-12-07T13:37:00;6.55;77.10
69009;SHT31;56065;52.472;13.380;2022-12-07T13:39:27;6.68;77.03
69009;SHT31;56065;52.472;13.380;2022-12-07T13:41:58;6.71;76.98
69009;SHT31;56065;52.472;13.380;2022-12-07T13:44:26;6.63;77.14
69009;SHT31;56065;52.472;13.380;2022-12-07T13:49:38;6.38;77.26
69009;SHT31;56065;52.472;13.380;2022-12-07T13:52:39;6.21;77.84
69009;SHT31;56065;52.472;13.380;2022-12-07T13:55:14;6.20;78.01
69009;SHT31;56065;52.472;13.380;2022-12-07T13:57:40;6.29;77.87
69009;SHT31;56065;52.472;13.380;2022-12-07T14:00:15;6.10;78.36
69009;SHT31;56065;52.472;13.380;2022-12-07T14:05:27;6.17;78.04
69009;SHT31;56065;52.472;13.380;2022-12-07T14:10:30;6.07;78.17
69009;SHT31;56065;52.472;13.380;2022-12-07T14:12:57;6.03;78.25
69009;SHT31;56065;52.472;13.380;2022-12-07T14:15:27;6.05;78.50
69009;SHT31;56065;52.472;13.380;2022-12-07T14:17:54;5.96;78.46
69009;SHT31;56065;52.472;13.380;2022-12-07T14:22:58;6.02;78.41
69009;SHT31;56065;52.472;13.380;2022-12-07T14:25:26;6.03;78.47
69009;SHT31;56065;52.472;13.380;2022-12-07T14:28:00;6.09;78.39
69009;SHT31;56065;52.472;13.380;2022-12-07T14:30:30;6.09;78.93
69009;SHT31;56065;52.472;13.380;2022-12-07T14:33:02;5.98;78.61
69009;SHT31;56065;52.472;13.380;2022-12-07T14:35:29;5.90;78.84
69009;SHT31;56065;52.472;13.380;2022-12-07T14:37:54;5.76;79.50
69009;SHT31;56065;52.472;13.380;2022-12-07T14:40:25;5.61;80.10
69009;SHT31;56065;52.472;13.380;2022-12-07T14:43:12;5.56;79.90
69009;SHT31;56065;52.472;13.380;2022-12-07T14:45:39;5.56;79.93
69009;SHT31;56065;52.472;13.380;2022-12-07T14:48:06;5.54;80.09
69009;SHT31;56065;52.472;13.380;2022-12-07T14:50:37;5.54;80.08
69009;SHT31;56065;52.472;13.380;2022-12-07T14:53:09;5.32;80.64
69009;SHT31;56065;52.472;13.380;2022-12-07T14:55:35;5.41;80.43
69009;SHT31;56065;52.472;13.380;2022-12-07T14:58:01;5.28;80.98
69009;SHT31;56065;52.472;13.380;2022-12-07T15:00:28;5.21;80.93
69009;SHT31;56065;52.472;13.380;2022-12-07T15:02:54;4.94;81.32
69009;SHT31;56065;52.472;13.380;2022-12-07T15:05:20;4.89;81.50
69009;SHT31;56065;52.472;13.380;2022-12-07T15:07:47;4.81;81.88
69009;SHT31;56065;52.472;13.380;2022-12-07T15:10:39;4.79;81.86
69009;SHT31;56065;52.472;13.380;2022-12-07T15:13:05;4.65;82.21
69009;SHT31;56065;52.472;13.380;2022-12-07T15:15:51;4.70;82.12
69009;SHT31;56065;52.472;13.380;2022-12-07T15:18:18;4.59;82.17
69009;SHT31;56065;52.472;13.380;2022-12-07T15:20:44;4.58;82.39
69009;SHT31;56065;52.472;13.380;2022-12-07T15:23:10;4.66;82.32
69009;SHT31;56065;52.472;13.380;2022-12-07T15:25:40;4.55;82.32
69009;SHT31;56065;52.472;13.380;2022-12-07T15:28:05;4.48;82.77
69009;SHT31;56065;52.472;13.380;2022-12-07T15:30:31;4.52;82.55
69009;SHT31;56065;52.472;13.380;2022-12-07T15:32:56;4.62;82.46
69009;SHT31;56065;52.472;13.380;2022-12-07T15:35:22;4.76;82.31
69009;SHT31;56065;52.472;13.380;2022-12-07T15:37:47;4.73;82.41
69009;SHT31;56065;52.472;13.380;2022-12-07T15:40:13;4.67;82.53
69009;SHT31;56065;52.472;13.380;2022-12-07T15:42:39;4.75;82.57
69009;SHT31;56065;52.472;13.380;2022-12-07T15:45:06;4.69;82.56
69009;SHT31;56065;52.472;13.380;2022-12-07T15:47:35;4.72;82.53
69009;SHT31;56065;52.472;13.380;2022-12-07T15:50:02;4.63;82.65
69009;SHT31;56065;52.472;13.380;2022-12-07T15:52:28;4.58;82.68
69009;SHT31;56065;52.472;13.380;2022-12-07T15:54:53;4.58;82.88
69009;SHT31;56065;52.472;13.380;2022-12-07T15:57:19;4.49;82.98
69009;SHT31;56065;52.472;13.380;2022-12-07T15:59:44;4.53;82.89
69009;SHT31;56065;52.472;13.380;2022-12-07T16:02:10;4.53;82.84
69009;SHT31;56065;52.472;13.380;2022-12-07T16:04:36;4.38;83.05
69009;SHT31;56065;52.472;13.380;2022-12-07T16:07:01;4.56;82.82
69009;SHT31;56065;52.472;13.380;2022-12-07T16:09:27;4.50;82.70
69009;SHT31;56065;52.472;13.380;2022-12-07T16:11:52;4.42;82.51
69009;SHT31;56065;52.472;13.380;2022-12-07T16:14:18;4.53;82.92
69009;SHT31;56065;52.472;13.380;2022-12-07T16:16:43;4.31;82.78
69009;SHT31;56065;52.472;13.380;2022-12-07T16:19:09;4.12;82.81
69009;SHT31;56065;52.472;13.380;2022-12-07T16:21:35;4.07;82.91
69009;SHT31;56065;52.472;13.380;2022-12-07T16:24:01;4.18;82.70
69009;SHT31;56065;52.472;13.380;2022-12-07T16:26:27;4.17;82.81
69009;SHT31;56065;52.472;13.380;2022-12-07T16:28:52;4.24;82.69
69009;SHT31;56065;52.472;13.380;2022-12-07T16:31:21;4.15;82.95
69009;SHT31;56065;52.472;13.380;2022-12-07T16:33:47;4.21;82.83
69009;SHT31;56065;52.472;13.380;2022-12-07T16:36:14;4.18;82.83
69009;SHT31;56065;52.472;13.380;2022-12-07T16:38:41;4.22;82.77
69009;SHT31;56065;52.472;13.380;2022-12-07T16:41:07;4.22;82.76
69009;SHT31;56065;52.472;13.380;2022-12-07T16:43:33;4.09;83.16
69009;SHT31;56065;52.472;13.380;2022-12-07T16:45:59;4.09;83.02
69009;SHT31;56065;52.472;13.380;2022-12-07T16:48:24;4.11;82.86
69009;SHT31;56065;52.472;13.380;2022-12-07T16:50:50;4.14;82.58
69009;SHT31;56065;52.472;13.380;2022-12-07T16:53:15;4.02;82.85
69009;SHT31;56065;52.472;13.380;2022-12-07T16:55:43;4.07;82.60
69009;SHT31;56065;52.472;13.380;2022-12-07T16:58:10;4.07;82.55
69009;SHT31;56065;52.472;13.380;2022-12-07T17:00:36;4.02;82.77
69009;SHT31;56065;52.472;13.380;2022-12-07T17:03:03;3.86;83.26
69009;SHT31;56065;52.472;13.380;2022-12-07T17:05:28;3.83;83.39
69009;SHT31;56065;52.472;13.380;2022-12-07T17:07:55;3.87;83.20
69009;SHT31;56065;52.472;13.380;2022-12-07T17:10:21;3.90;83.18
69009;SHT31;56065;52.472;13.380;2022-12-07T17:12:46;3.86;83.15
69009;SHT31;56065;52.472;13.380;2022-12-07T17:15:12;3.88;83.05
69009;SHT31;56065;52.472;13.380;2022-12-07T17:17:44;3.95;82.91
69009;SHT31;56065;52.472;13.380;2022-12-07T17:20:10;3.99;82.90
69009;SHT31;56065;52.472;13.380;2022-12-07T17:22:36;3.88;82.94
69009;SHT31;56065;52.472;13.380;2022-12-07T17:25:02;3.90;82.83
69009;SHT31;56065;52.472;13.380;2022-12-07T17:27:28;3.78;82.97
69009;SHT31;56065;52.472;13.380;2022-12-07T17:29:53;3.74;83.19
69009;SHT31;56065;52.472;13.380;2022-12-07T17:32:18;3.74;83.31
69009;SHT31;56065;52.472;13.380;2022-12-07T17:34:44;3.69;83.41
69009;SHT31;56065;52.472;13.380;2022-12-07T17:37:09;3.71;83.16
69009;SHT31;56065;52.472;13.380;2022-12-07T17:39:34;3.57;83.14
69009;SHT31;56065;52.472;13.380;2022-12-07T17:42:00;3.67;83.19
69009;SHT31;56065;52.472;13.380;2022-12-07T17:44:44;3.63;83.14